sensor_id;sensor_type;location;lat;lon;timestamp;temperature;humidity
4215;DHT22;2121;48.062;7.850;2022-11-25T00:01:07;3.10;99.90
4215;DHT22;2121;48.062;7.850;2022-11-25T00:03:37;3.20;99.90
4215;DHT22;2121;48.062;7.850;2022-11-25T00:06:12;3.20;99.90
4215;DHT22;2121;48.062;7.850;2022-11-25T00:08:46;3.30;99.90
4215;DHT22;2121;48.062;7.850;2022-11-25T00:11:15;3.30;99.90
4215;DHT22;2121;48.062;7.850;2022-11-25T00:13:42;3.20;99.90
4215;DHT22;2121;48.062;7.850;2022-11-25T00:16:11;3.20;99.90
4215;DHT22;2121;48.062;7.850;2022-11-25T00:18:39;3.30;99.90
4215;DHT22;2121;48.062;7.850;2022-11-25T00:21:06;3.30;99.90
4215;DHT22;2121;48.062;7.850;2022-11-25T00:23:35;3.40;99.90
4215;DHT22;2121;48.062;7.850;2022-11-25T00:26:12;3.40;99.90
4215;DHT22;2121;48.062;7.850;2022-11-25T00:28:40;3.40;99.90
4215;DHT22;2121;48.062;7.850;2022-11-25T00:31:13;3.30;99.90
4215;DHT22;2121;48.062;7.850;2022-11-25T00:33:41;3.20;99.90
4215;DHT22;2121;48.062;7.850;2022-11-25T00:36:28;3.20;99.90
4215;DHT22;2121;48.062;7.850;2022-11-25T00:39:06;3.30;99.90
4215;DHT22;2121;48.062;7.850;2022-11-25T00:41:38;3.40;99.90
4215;DHT22;2121;48.062;7.850;2022-11-25T00:44:23;3.50;99.90
4215;DHT22;2121;48.062;7.850;2022-11-25T00:47:02;3.60;99.90
4215;DHT22;2121;48.062;7.850;2022-11-25T00:49:41;3.60;99.90
4215;DHT22;2121;48.062;7.850;2022-11-25T00:52:12;3.60;99.90
4215;DHT22;2121;48.062;7.850;2022-11-25T00:54:40;3.60;99.90
4215;DHT22;2121;48.062;7.850;2022-11-25T00:57:05;3.70;99.90
4215;DHT22;2121;48.062;7.850;2022-11-25T00:59:31;3.80;99.90
4215;DHT22;2121;48.062;7.850;2022-11-25T01:01:57;3.90;99.90
4215;DHT22;2121;48.062;7.850;2022-11-25T01:04:23;4.00;99.90
4215;DHT22;2121;48.062;7.850;2022-11-25T01:06:49;4.00;99.90
4215;DHT22;2121;48.062;7.850;2022-11-25T01:09:15;4.00;99.90
4215;DHT22;2121;48.062;7.850;2022-11-25T01:11:41;4.00;99.90
4215;DHT22;2121;48.062;7.850;2022-11-25T01:14:07;4.00;99.90
4215;DHT22;2121;48.062;7.850;2022-11-25T01:16:33;4.00;99.90
4215;DHT22;2121;48.062;7.850;2022-11-25T01:18:59;4.00;99.90
4215;DHT22;2121;48.062;7.850;2022-11-25T01:21:28;4.10;99.90
4215;DHT22;2121;48.062;7.850;2022-11-25T01:23:58;4.30;99.90
4215;DHT22;2121;48.062;7.850;2022-11-25T01:26:25;4.30;99.90
4215;DHT22;2121;48.062;7.850;2022-11-25T01:28:54;4.30;99.90
4215;DHT22;2121;48.062;7.850;2022-11-25T01:31:22;4.20;99.90
4215;DHT22;2121;48.062;7.850;2022-11-25T01:34:00;4.10;99.90
4215;DHT22;2121;48.062;7.850;2022-11-25T01:36:28;4.20;99.90
4215;DHT22;2121;48.062;7.850;2022-11-25T01:38:56;4.20;99.90
4215;DHT22;2121;48.062;7.850;2022-11-25T01:41:25;4.10;99.90
4215;DHT22;2121;48.062;7.850;2022-11-25T01:49:13;4.10;99.90
4215;DHT22;2121;48.062;7.850;2022-11-25T01:52:10;4.20;99.90
4215;DHT22;2121;48.062;7.850;2022-11-25T01:54:40;4.10;99.90
4215;DHT22;2121;48.062;7.850;2022-11-25T01:57:17;4.00;99.90
4215;DHT22;2121;48.062;7.850;2022-11-25T01:59:54;4.10;99.90
4215;DHT22;2121;48.062;7.850;2022-11-25T02:02:21;4.00;99.90
4215;DHT22;2121;48.062;7.850;2022-11-25T02:04:47;3.90;99.90
4215;DHT22;2121;48.062;7.850;2022-11-25T02:07:43;3.90;99.90
4215;DHT22;2121;48.062;7.850;2022-11-25T02:10:13;3.80;99.90
4215;DHT22;2121;48.062;7.850;2022-11-25T02:12:44;3.80;99.90
4215;DHT22;2121;48.062;7.850;2022-11-25T02:15:13;3.90;99.90
4215;DHT22;2121;48.062;7.850;2022-11-25T02:17:40;3.90;99.90
4215;DHT22;2121;48.062;7.850;2022-11-25T02:20:13;3.90;99.90
4215;DHT22;2121;48.062;7.850;2022-11-25T02:25:13;3.90;99.90
4215;DHT22;2121;48.062;7.850;2022-11-25T02:28:23;3.90;99.90
4215;DHT22;2121;48.062;7.850;2022-11-25T02:30:51;4.00;99.90
4215;DHT22;2121;48.062;7.850;2022-11-25T02:33:18;4.00;99.90
4215;DHT22;2121;48.062;7.850;2022-11-25T02:35:54;4.00;99.90
4215;DHT22;2121;48.062;7.850;2022-11-25T02:38:22;4.10;99.90
4215;DHT22;2121;48.062;7.850;2022-11-25T02:41:17;4.00;99.90
4215;DHT22;2121;48.062;7.850;2022-11-25T02:43:45;4.10;99.90
4215;DHT22;2121;48.062;7.850;2022-11-25T02:46:15;4.10;99.90
4215;DHT22;2121;48.062;7.850;2022-11-25T02:48:42;4.10;99.90
4215;DHT22;2121;48.062;7.850;2022-11-25T02:51:11;4.00;99.90
4215;DHT22;2121;48.062;7.850;2022-11-25T02:53:39;3.90;99.90
4215;DHT22;2121;48.062;7.850;2022-11-25T02:56:05;3.90;99.90
4215;DHT22;2121;48.062;7.850;2022-11-25T02:58:32;3.90;99.90
4215;DHT22;2121;48.062;7.850;2022-11-25T03:00:57;3.90;99.90
4215;DHT22;2121;48.062;7.850;2022-11-25T03:03:23;3.90;99.90
4215;DHT22;2121;48.062;7.850;2022-11-25T03:05:49;3.80;99.90
4215;DHT22;2121;48.062;7.850;2022-11-25T03:08:14;3.80;99.90
4215;DHT22;2121;48.062;7.850;2022-11-25T03:10:40;3.80;99.90
4215;DHT22;2121;48.062;7.850;2022-11-25T03:13:07;3.80;99.90
4215;DHT22;2121;48.062;7.850;2022-11-25T03:15:34;3.90;99.90
4215;DHT22;2121;48.062;7.850;2022-11-25T03:18:00;3.90;99.90
4215;DHT22;2121;48.062;7.850;2022-11-25T03:20:27;4.00;99.90
4215;DHT22;2121;48.062;7.850;2022-11-25T03:22:53;3.90;99.90
4215;DHT22;2121;48.062;7.850;2022-11-25T03:25:19;3.90;99.90
4215;DHT22;2121;48.062;7.850;2022-11-25T03:27:45;4.00;99.90
4215;DHT22;2121;48.062;7.850;2022-11-25T03:30:17;4.00;99.90
4215;DHT22;2121;48.062;7.850;2022-11-25T03:32:44;4.00;99.90
4215;DHT22;2121;48.062;7.850;2022-11-25T03:35:11;4.00;99.90
4215;DHT22;2121;48.062;7.850;2022-11-25T03:37:37;4.00;99.90
4215;DHT22;2121;48.062;7.850;2022-11-25T03:40:04;4.00;99.90
4215;DHT22;2121;48.062;7.850;2022-11-25T03:42:31;4.10;99.90
4215;DHT22;2121;48.062;7.850;2022-11-25T03:44:56;4.10;99.90
4215;DHT22;2121;48.062;7.850;2022-11-25T03:47:22;4.20;99.90
4215;DHT22;2121;48.062;7.850;2022-11-25T03:49:48;4.10;99.90
4215;DHT22;2121;48.062;7.850;2022-11-25T03:52:14;4.10;99.90
4215;DHT22;2121;48.062;7.850;2022-11-25T03:54:40;4.10;99.90
4215;DHT22;2121;48.062;7.850;2022-11-25T03:57:06;4.10;99.90
4215;DHT22;2121;48.062;7.850;2022-11-25T03:59:32;4.00;99.90
4215;DHT22;2121;48.062;7.850;2022-11-25T04:01:57;4.00;99.90
4215;DHT22;2121;48.062;7.850;2022-11-25T04:04:23;4.00;99.90
4215;DHT22;2121;48.062;7.850;2022-11-25T04:06:49;4.00;99.90
4215;DHT22;2121;48.062;7.850;2022-11-25T04:09:15;4.10;99.90
4215;DHT22;2121;48.062;7.850;2022-11-25T04:11:41;4.20;99.90
4215;DHT22;2121;48.062;7.850;2022-11-25T04:14:24;4.30;99.90
4215;DHT22;2121;48.062;7.850;2022-11-25T04:16:50;4.40;99.90
4215;DHT22;2121;48.062;7.850;2022-11-25T04:19:16;4.40;99.90
4215;DHT22;2121;48.062;7.850;2022-11-25T04:21:42;4.50;99.90
4215;DHT22;2121;48.062;7.850;2022-11-25T04:24:08;4.50;99.90
4215;DHT22;2121;48.062;7.850;2022-11-25T04:26:34;4.50;99.90
4215;DHT22;2121;48.062;7.850;2022-11-25T04:29:00;4.50;99.90
4215;DHT22;2121;48.062;7.850;2022-11-25T04:31:26;4.50;99.90
4215;DHT22;2121;48.062;7.850;2022-11-25T04:33:51;4.50;99.90
4215;DHT22;2121;48.062;7.850;2022-11-25T04:36:17;4.40;99.90
4215;DHT22;2121;48.062;7.850;2022-11-25T04:38:43;4.30;99.90
4215;DHT22;2121;48.062;7.850;2022-11-25T04:41:09;4.30;99.90
4215;DHT22;2121;48.062;7.850;2022-11-25T04:43:35;4.30;99.90
4215;DHT22;2121;48.062;7.850;2022-11-25T04:46:01;4.40;99.90
4215;DHT22;2121;48.062;7.850;2022-11-25T04:48:28;4.40;99.90
4215;DHT22;2121;48.062;7.850;2022-11-25T04:50:54;4.40;99.90
4215;DHT22;2121;48.062;7.850;2022-11-25T04:53:20;4.40;99.90
4215;DHT22;2121;48.062;7.850;2022-11-25T04:55:46;4.40;99.90
4215;DHT22;2121;48.062;7.850;2022-11-25T04:58:12;4.40;99.90
4215;DHT22;2121;48.062;7.850;2022-11-25T05:00:38;4.40;99.90
4215;DHT22;2121;48.062;7.850;2022-11-25T05:03:04;4.40;99.90
4215;DHT22;2121;48.062;7.850;2022-11-25T05:05:29;4.30;99.90
4215;DHT22;2121;48.062;7.850;2022-11-25T05:07:55;4.40;99.90
4215;DHT22;2121;48.062;7.850;2022-11-25T05:10:21;4.30;99.90
4215;DHT22;2121;48.062;7.850;2022-11-25T05:12:47;4.30;99.90
4215;DHT22;2121;48.062;7.850;2022-11-25T05:15:13;4.40;99.90
4215;DHT22;2121;48.062;7.850;2022-11-25T05:17:39;4.30;99.90
4215;DHT22;2121;48.062;7.850;2022-11-25T05:20:06;4.40;99.90
4215;DHT22;2121;48.062;7.850;2022-11-25T05:22:33;4.40;99.90
4215;DHT22;2121;48.062;7.850;2022-11-25T05:24:59;4.50;99.90
4215;DHT22;2121;48.062;7.850;2022-11-25T05:27:26;4.30;99.90
4215;DHT22;2121;48.062;7.850;2022-11-25T05:29:52;4.30;99.90
4215;DHT22;2121;48.062;7.850;2022-11-25T05:32:18;4.30;99.90
4215;DHT22;2121;48.062;7.850;2022-11-25T05:34:44;4.30;99.90
4215;DHT22;2121;48.062;7.850;2022-11-25T05:37:12;4.40;99.90
4215;DHT22;2121;48.062;7.850;2022-11-25T05:39:38;4.40;99.90
4215;DHT22;2121;48.062;7.850;2022-11-25T05:42:04;4.50;99.90
4215;DHT22;2121;48.062;7.850;2022-11-25T05:44:29;4.50;99.90
4215;DHT22;2121;48.062;7.850;2022-11-25T05:46:55;4.50;99.90
4215;DHT22;2121;48.062;7.850;2022-11-25T05:49:21;4.50;99.90
4215;DHT22;2121;48.062;7.850;2022-11-25T05:51:47;4.50;99.90
4215;DHT22;2121;48.062;7.850;2022-11-25T05:54:13;4.60;99.90
4215;DHT22;2121;48.062;7.850;2022-11-25T05:56:39;4.60;99.90
4215;DHT22;2121;48.062;7.850;2022-11-25T05:59:05;4.60;99.90
4215;DHT22;2121;48.062;7.850;2022-11-25T06:01:31;4.70;99.90
4215;DHT22;2121;48.062;7.850;2022-11-25T06:04:02;4.80;99.90
4215;DHT22;2121;48.062;7.850;2022-11-25T06:06:29;4.90;99.90
4215;DHT22;2121;48.062;7.850;2022-11-25T06:08:55;4.90;99.90
4215;DHT22;2121;48.062;7.850;2022-11-25T06:11:21;5.00;99.90
4215;DHT22;2121;48.062;7.850;2022-11-25T06:13:47;4.90;99.90
4215;DHT22;2121;48.062;7.850;2022-11-25T06:16:16;4.90;99.90
4215;DHT22;2121;48.062;7.850;2022-11-25T06:18:43;5.00;99.90
4215;DHT22;2121;48.062;7.850;2022-11-25T06:21:09;4.90;99.90
4215;DHT22;2121;48.062;7.850;2022-11-25T06:23:36;4.90;99.90
4215;DHT22;2121;48.062;7.850;2022-11-25T06:26:13;5.00;99.90
4215;DHT22;2121;48.062;7.850;2022-11-25T06:28:41;5.00;99.90
4215;DHT22;2121;48.062;7.850;2022-11-25T06:31:10;5.00;99.90
4215;DHT22;2121;48.062;7.850;2022-11-25T06:33:38;5.00;99.90
4215;DHT22;2121;48.062;7.850;2022-11-25T06:36:06;5.00;99.90
4215;DHT22;2121;48.062;7.850;2022-11-25T06:38:33;5.10;99.90
4215;DHT22;2121;48.062;7.850;2022-11-25T06:41:04;5.30;99.90
4215;DHT22;2121;48.062;7.850;2022-11-25T06:43:31;5.40;99.90
4215;DHT22;2121;48.062;7.850;2022-11-25T06:46:01;5.30;99.90
4215;DHT22;2121;48.062;7.850;2022-11-25T06:48:31;5.30;99.90
4215;DHT22;2121;48.062;7.850;2022-11-25T06:50:59;5.20;99.90
4215;DHT22;2121;48.062;7.850;2022-11-25T06:53:26;5.20;99.90
4215;DHT22;2121;48.062;7.850;2022-11-25T06:56:13;5.20;99.90
4215;DHT22;2121;48.062;7.850;2022-11-25T06:58:42;5.30;99.90
4215;DHT22;2121;48.062;7.850;2022-11-25T07:01:19;5.40;99.90
4215;DHT22;2121;48.062;7.850;2022-11-25T07:03:50;5.40;99.90
4215;DHT22;2121;48.062;7.850;2022-11-25T07:06:18;5.50;99.90
4215;DHT22;2121;48.062;7.850;2022-11-25T07:08:45;5.60;99.90
4215;DHT22;2121;48.062;7.850;2022-11-25T07:11:26;5.80;99.90
4215;DHT22;2121;48.062;7.850;2022-11-25T07:13:56;6.00;99.90
4215;DHT22;2121;48.062;7.850;2022-11-25T07:16:23;6.20;99.90
4215;DHT22;2121;48.062;7.850;2022-11-25T07:18:50;6.30;99.90
4215;DHT22;2121;48.062;7.850;2022-11-25T07:21:21;6.30;99.90
4215;DHT22;2121;48.062;7.850;2022-11-25T07:23:49;6.10;99.90
4215;DHT22;2121;48.062;7.850;2022-11-25T07:26:20;6.00;99.90
4215;DHT22;2121;48.062;7.850;2022-11-25T07:28:49;6.00;99.90
4215;DHT22;2121;48.062;7.850;2022-11-25T07:31:18;5.80;99.90
4215;DHT22;2121;48.062;7.850;2022-11-25T07:33:51;5.70;99.90
4215;DHT22;2121;48.062;7.850;2022-11-25T07:36:28;5.70;99.90
4215;DHT22;2121;48.062;7.850;2022-11-25T07:38:55;5.90;99.90
4215;DHT22;2121;48.062;7.850;2022-11-25T07:41:23;5.80;99.90
4215;DHT22;2121;48.062;7.850;2022-11-25T07:43:53;5.90;99.90
4215;DHT22;2121;48.062;7.850;2022-11-25T07:49:04;6.10;99.90
4215;DHT22;2121;48.062;7.850;2022-11-25T07:51:37;6.20;99.90
4215;DHT22;2121;48.062;7.850;2022-11-25T07:54:09;6.30;99.90
4215;DHT22;2121;48.062;7.850;2022-11-25T07:56:38;6.30;99.90
4215;DHT22;2121;48.062;7.850;2022-11-25T07:59:06;6.10;99.90
4215;DHT22;2121;48.062;7.850;2022-11-25T08:01:32;6.10;99.90
4215;DHT22;2121;48.062;7.850;2022-11-25T08:03:58;6.10;99.90
4215;DHT22;2121;48.062;7.850;2022-11-25T08:06:26;6.20;99.90
4215;DHT22;2121;48.062;7.850;2022-11-25T08:08:54;6.20;99.90
4215;DHT22;2121;48.062;7.850;2022-11-25T08:11:27;6.20;99.90
4215;DHT22;2121;48.062;7.850;2022-11-25T08:13:53;6.20;99.90
4215;DHT22;2121;48.062;7.850;2022-11-25T08:16:21;6.30;99.90
4215;DHT22;2121;48.062;7.850;2022-11-25T08:18:49;6.30;99.90
4215;DHT22;2121;48.062;7.850;2022-11-25T08:21:16;6.30;99.90
4215;DHT22;2121;48.062;7.850;2022-11-25T08:23:43;6.40;99.90
4215;DHT22;2121;48.062;7.850;2022-11-25T08:26:15;6.50;99.90
4215;DHT22;2121;48.062;7.850;2022-11-25T08:28:51;6.50;99.90
4215;DHT22;2121;48.062;7.850;2022-11-25T08:31:21;6.50;99.90
4215;DHT22;2121;48.062;7.850;2022-11-25T08:33:49;6.50;99.90
4215;DHT22;2121;48.062;7.850;2022-11-25T08:36:15;6.60;99.90
4215;DHT22;2121;48.062;7.850;2022-11-25T08:38:43;6.70;99.90
4215;DHT22;2121;48.062;7.850;2022-11-25T08:41:16;6.80;99.90
4215;DHT22;2121;48.062;7.850;2022-11-25T08:43:47;7.00;99.90
4215;DHT22;2121;48.062;7.850;2022-11-25T08:46:17;7.10;99.90
4215;DHT22;2121;48.062;7.850;2022-11-25T08:48:44;7.20;99.90
4215;DHT22;2121;48.062;7.850;2022-11-25T08:51:16;7.20;99.90
4215;DHT22;2121;48.062;7.850;2022-11-25T08:53:45;7.20;99.90
4215;DHT22;2121;48.062;7.850;2022-11-25T08:56:11;7.30;99.90
4215;DHT22;2121;48.062;7.850;2022-11-25T08:58:38;7.30;99.90
4215;DHT22;2121;48.062;7.850;2022-11-25T09:01:05;7.30;99.90
4215;DHT22;2121;48.062;7.850;2022-11-25T09:03:33;7.40;99.90
4215;DHT22;2121;48.062;7.850;2022-11-25T09:06:00;7.60;99.90
4215;DHT22;2121;48.062;7.850;2022-11-25T09:08:26;7.70;99.90
4215;DHT22;2121;48.062;7.850;2022-11-25T09:10:52;7.90;99.90
4215;DHT22;2121;48.062;7.850;2022-11-25T09:13:18;8.00;99.90
4215;DHT22;2121;48.062;7.850;2022-11-25T09:15:44;8.10;99.90
4215;DHT22;2121;48.062;7.850;2022-11-25T09:18:10;8.20;99.90
4215;DHT22;2121;48.062;7.850;2022-11-25T09:20:38;8.40;99.90
4215;DHT22;2121;48.062;7.850;2022-11-25T09:23:04;8.50;99.90
4215;DHT22;2121;48.062;7.850;2022-11-25T09:25:30;8.60;99.90
4215;DHT22;2121;48.062;7.850;2022-11-25T09:27:56;8.80;99.90
4215;DHT22;2121;48.062;7.850;2022-11-25T09:30:22;8.90;99.90
4215;DHT22;2121;48.062;7.850;2022-11-25T09:32:50;8.90;99.90
4215;DHT22;2121;48.062;7.850;2022-11-25T09:35:18;9.00;99.90
4215;DHT22;2121;48.062;7.850;2022-11-25T09:37:45;9.00;99.90
4215;DHT22;2121;48.062;7.850;2022-11-25T09:40:23;9.00;99.90
4215;DHT22;2121;48.062;7.850;2022-11-25T09:43:05;9.10;99.90
4215;DHT22;2121;48.062;7.850;2022-11-25T09:52:12;9.40;99.90
4215;DHT22;2121;48.062;7.850;2022-11-25T09:54:55;9.60;99.90
4215;DHT22;2121;48.062;7.850;2022-11-25T10:00:39;10.10;99.90
4215;DHT22;2121;48.062;7.850;2022-11-25T10:03:47;10.20;99.90
4215;DHT22;2121;48.062;7.850;2022-11-25T10:08:55;10.30;99.90
4215;DHT22;2121;48.062;7.850;2022-11-25T10:14:20;10.30;99.90
4215;DHT22;2121;48.062;7.850;2022-11-25T10:16:51;10.40;99.90
4215;DHT22;2121;48.062;7.850;2022-11-25T10:19:53;10.40;99.90
4215;DHT22;2121;48.062;7.850;2022-11-25T10:22:31;10.50;99.90
4215;DHT22;2121;48.062;7.850;2022-11-25T10:25:21;10.70;99.90
4215;DHT22;2121;48.062;7.850;2022-11-25T10:28:01;10.80;99.90
4215;DHT22;2121;48.062;7.850;2022-11-25T10:30:42;10.90;99.90
4215;DHT22;2121;48.062;7.850;2022-11-25T10:33:19;10.80;99.90
4215;DHT22;2121;48.062;7.850;2022-11-25T10:41:04;10.50;99.90
4215;DHT22;2121;48.062;7.850;2022-11-25T10:43:31;10.30;99.90
4215;DHT22;2121;48.062;7.850;2022-11-25T10:46:31;10.20;99.90
4215;DHT22;2121;48.062;7.850;2022-11-25T10:49:14;10.20;99.90
4215;DHT22;2121;48.062;7.850;2022-11-25T10:51:46;10.10;99.90
4215;DHT22;2121;48.062;7.850;2022-11-25T10:54:24;10.10;99.90
4215;DHT22;2121;48.062;7.850;2022-11-25T10:56:59;10.10;99.90
4215;DHT22;2121;48.062;7.850;2022-11-25T10:59:37;10.00;99.90
4215;DHT22;2121;48.062;7.850;2022-11-25T11:05:27;9.70;99.90
4215;DHT22;2121;48.062;7.850;2022-11-25T11:10:43;9.50;99.90
4215;DHT22;2121;48.062;7.850;2022-11-25T11:13:28;9.40;99.90
4215;DHT22;2121;48.062;7.850;2022-11-25T11:15:57;9.40;99.90
4215;DHT22;2121;48.062;7.850;2022-11-25T11:18:25;9.30;99.90
4215;DHT22;2121;48.062;7.850;2022-11-25T11:21:06;9.30;99.90
4215;DHT22;2121;48.062;7.850;2022-11-25T11:23:49;9.40;99.90
4215;DHT22;2121;48.062;7.850;2022-11-25T11:26:34;9.40;99.90
4215;DHT22;2121;48.062;7.850;2022-11-25T11:29:13;9.40;99.90
4215;DHT22;2121;48.062;7.850;2022-11-25T11:31:47;9.40;99.90
4215;DHT22;2121;48.062;7.850;2022-11-25T11:40:23;9.30;99.90
4215;DHT22;2121;48.062;7.850;2022-11-25T11:52:04;9.40;99.90
4215;DHT22;2121;48.062;7.850;2022-11-25T11:54:45;9.50;99.90
4215;DHT22;2121;48.062;7.850;2022-11-25T12:00:11;10.10;99.90
4215;DHT22;2121;48.062;7.850;2022-11-25T12:03:12;10.20;99.90
4215;DHT22;2121;48.062;7.850;2022-11-25T12:05:39;10.30;99.90
4215;DHT22;2121;48.062;7.850;2022-11-25T12:11:25;10.40;99.90
4215;DHT22;2121;48.062;7.850;2022-11-25T12:14:10;10.30;99.90
4215;DHT22;2121;48.062;7.850;2022-11-25T12:16:56;10.30;99.90
4215;DHT22;2121;48.062;7.850;2022-11-25T12:19:55;10.40;99.90
4215;DHT22;2121;48.062;7.850;2022-11-25T12:22:56;10.40;99.90
4215;DHT22;2121;48.062;7.850;2022-11-25T12:25:30;10.30;99.90
4215;DHT22;2121;48.062;7.850;2022-11-25T12:28:07;10.40;99.90
4215;DHT22;2121;48.062;7.850;2022-11-25T12:31:05;10.50;99.90
4215;DHT22;2121;48.062;7.850;2022-11-25T12:33:54;10.80;99.90
4215;DHT22;2121;48.062;7.850;2022-11-25T12:36:48;11.00;99.90
4215;DHT22;2121;48.062;7.850;2022-11-25T12:42:12;10.90;99.90
4215;DHT22;2121;48.062;7.850;2022-11-25T12:45:00;11.10;99.90
4215;DHT22;2121;48.062;7.850;2022-11-25T12:47:28;11.20;99.90
4215;DHT22;2121;48.062;7.850;2022-11-25T12:49:54;11.20;99.90
4215;DHT22;2121;48.062;7.850;2022-11-25T13:00:24;10.90;99.90
4215;DHT22;2121;48.062;7.850;2022-11-25T13:17:38;10.70;99.90
4215;DHT22;2121;48.062;7.850;2022-11-25T13:25:31;11.10;99.90
4215;DHT22;2121;48.062;7.850;2022-11-25T13:27:59;11.20;99.90
4215;DHT22;2121;48.062;7.850;2022-11-25T13:35:55;11.80;99.90
4215;DHT22;2121;48.062;7.850;2022-11-25T13:38:56;12.00;99.90
4215;DHT22;2121;48.062;7.850;2022-11-25T13:41:39;12.20;99.90
4215;DHT22;2121;48.062;7.850;2022-11-25T13:44:22;11.90;99.90
4215;DHT22;2121;48.062;7.850;2022-11-25T13:46:54;11.80;99.90
4215;DHT22;2121;48.062;7.850;2022-11-25T13:49:32;11.80;99.90
4215;DHT22;2121;48.062;7.850;2022-11-25T13:54:58;11.40;99.90
4215;DHT22;2121;48.062;7.850;2022-11-25T13:57:32;11.10;99.90
4215;DHT22;2121;48.062;7.850;2022-11-25T14:00:07;10.80;99.90
4215;DHT22;2121;48.062;7.850;2022-11-25T14:02:53;10.60;99.90
4215;DHT22;2121;48.062;7.850;2022-11-25T14:08:44;10.40;99.90
4215;DHT22;2121;48.062;7.850;2022-11-25T14:11:58;10.50;99.90
4215;DHT22;2121;48.062;7.850;2022-11-25T14:26:40;10.30;99.90
4215;DHT22;2121;48.062;7.850;2022-11-25T14:29:20;10.20;99.90
4215;DHT22;2121;48.062;7.850;2022-11-25T14:31:54;10.20;99.90
4215;DHT22;2121;48.062;7.850;2022-11-25T14:34:26;10.20;99.90
4215;DHT22;2121;48.062;7.850;2022-11-25T14:37:04;10.20;99.90
4215;DHT22;2121;48.062;7.850;2022-11-25T14:40:07;10.20;99.90
4215;DHT22;2121;48.062;7.850;2022-11-25T14:42:41;10.10;99.90
4215;DHT22;2121;48.062;7.850;2022-11-25T14:45:31;10.00;99.90
4215;DHT22;2121;48.062;7.850;2022-11-25T14:48:19;10.00;99.90
4215;DHT22;2121;48.062;7.850;2022-11-25T14:50:58;10.10;99.90
4215;DHT22;2121;48.062;7.850;2022-11-25T14:53:27;10.20;99.90
4215;DHT22;2121;48.062;7.850;2022-11-25T14:55:53;10.10;99.90
4215;DHT22;2121;48.062;7.850;2022-11-25T14:58:22;10.00;99.90
4215;DHT22;2121;48.062;7.850;2022-11-25T15:00:57;9.90;99.90
4215;DHT22;2121;48.062;7.850;2022-11-25T15:03:32;9.90;99.90
4215;DHT22;2121;48.062;7.850;2022-11-25T15:06:03;9.90;99.90
4215;DHT22;2121;48.062;7.850;2022-11-25T15:08:44;9.80;99.90
4215;DHT22;2121;48.062;7.850;2022-11-25T15:11:23;9.70;99.90
4215;DHT22;2121;48.062;7.850;2022-11-25T15:16:32;9.40;99.90
4215;DHT22;2121;48.062;7.850;2022-11-25T15:19:20;9.30;99.90
4215;DHT22;2121;48.062;7.850;2022-11-25T15:21:56;9.10;99.90
4215;DHT22;2121;48.062;7.850;2022-11-25T15:24:25;9.10;99.90
4215;DHT22;2121;48.062;7.850;2022-11-25T15:26:58;9.00;99.90
4215;DHT22;2121;48.062;7.850;2022-11-25T15:29:29;9.00;99.90
4215;DHT22;2121;48.062;7.850;2022-11-25T15:31:56;9.00;99.90
4215;DHT22;2121;48.062;7.850;2022-11-25T15:34:23;9.00;99.90
4215;DHT22;2121;48.062;7.850;2022-11-25T15:36:50;9.00;99.90
4215;DHT22;2121;48.062;7.850;2022-11-25T15:44:57;8.90;99.90
4215;DHT22;2121;48.062;7.850;2022-11-25T15:47:30;8.90;99.90
4215;DHT22;2121;48.062;7.850;2022-11-25T15:50:18;8.80;99.90
4215;DHT22;2121;48.062;7.850;2022-11-25T15:52:48;8.80;99.90
4215;DHT22;2121;48.062;7.850;2022-11-25T15:55:19;8.90;99.90
4215;DHT22;2121;48.062;7.850;2022-11-25T16:00:40;9.00;99.90
4215;DHT22;2121;48.062;7.850;2022-11-25T16:03:35;9.00;99.90
4215;DHT22;2121;48.062;7.850;2022-11-25T16:06:16;8.90;99.90
4215;DHT22;2121;48.062;7.850;2022-11-25T16:09:01;8.90;99.90
4215;DHT22;2121;48.062;7.850;2022-11-25T16:11:29;8.80;99.90
4215;DHT22;2121;48.062;7.850;2022-11-25T16:17:01;8.80;99.90
4215;DHT22;2121;48.062;7.850;2022-11-25T16:19:41;8.80;99.90
4215;DHT22;2121;48.062;7.850;2022-11-25T16:22:14;8.80;99.90
4215;DHT22;2121;48.062;7.850;2022-11-25T16:24:50;8.70;99.90
4215;DHT22;2121;48.062;7.850;2022-11-25T16:27:21;8.70;99.90
4215;DHT22;2121;48.062;7.850;2022-11-25T16:29:55;8.80;99.90
4215;DHT22;2121;48.062;7.850;2022-11-25T16:32:42;8.70;99.90
4215;DHT22;2121;48.062;7.850;2022-11-25T16:37:39;8.80;99.90
4215;DHT22;2121;48.062;7.850;2022-11-25T16:40:07;8.80;99.90
4215;DHT22;2121;48.062;7.850;2022-11-25T16:42:36;8.70;99.90
4215;DHT22;2121;48.062;7.850;2022-11-25T16:45:05;8.60;99.90
4215;DHT22;2121;48.062;7.850;2022-11-25T16:47:57;8.50;99.90
4215;DHT22;2121;48.062;7.850;2022-11-25T16:50:23;8.60;99.90
4215;DHT22;2121;48.062;7.850;2022-11-25T16:52:49;8.70;99.90
4215;DHT22;2121;48.062;7.850;2022-11-25T16:55:15;8.70;99.90
4215;DHT22;2121;48.062;7.850;2022-11-25T16:57:43;8.70;99.90
4215;DHT22;2121;48.062;7.850;2022-11-25T17:00:14;8.70;99.90
4215;DHT22;2121;48.062;7.850;2022-11-25T17:02:41;8.70;99.90
4215;DHT22;2121;48.062;7.850;2022-11-25T17:05:19;8.70;99.90
4215;DHT22;2121;48.062;7.850;2022-11-25T17:07:47;8.60;99.90
4215;DHT22;2121;48.062;7.850;2022-11-25T17:10:15;8.50;99.90
4215;DHT22;2121;48.062;7.850;2022-11-25T17:12:42;8.40;99.90
4215;DHT22;2121;48.062;7.850;2022-11-25T17:15:22;8.30;99.90
4215;DHT22;2121;48.062;7.850;2022-11-25T17:17:51;8.40;99.90
4215;DHT22;2121;48.062;7.850;2022-11-25T17:20:19;8.40;99.90
4215;DHT22;2121;48.062;7.850;2022-11-25T17:22:48;8.30;99.90
4215;DHT22;2121;48.062;7.850;2022-11-25T17:25:15;8.20;99.90
4215;DHT22;2121;48.062;7.850;2022-11-25T17:27:41;8.20;99.90
4215;DHT22;2121;48.062;7.850;2022-11-25T17:30:22;8.20;99.90
4215;DHT22;2121;48.062;7.850;2022-11-25T17:32:57;8.10;99.90
4215;DHT22;2121;48.062;7.850;2022-11-25T17:35:28;7.90;99.90
4215;DHT22;2121;48.062;7.850;2022-11-25T17:37:56;7.80;99.90
4215;DHT22;2121;48.062;7.850;2022-11-25T17:40:22;7.70;99.90
4215;DHT22;2121;48.062;7.850;2022-11-25T17:42:48;7.60;99.90
4215;DHT22;2121;48.062;7.850;2022-11-25T17:45:17;7.60;99.90
4215;DHT22;2121;48.062;7.850;2022-11-25T17:47:44;7.60;99.90
4215;DHT22;2121;48.062;7.850;2022-11-25T17:50:21;7.60;99.90
4215;DHT22;2121;48.062;7.850;2022-11-25T17:52:50;7.70;99.90
4215;DHT22;2121;48.062;7.850;2022-11-25T17:55:18;7.70;99.90
4215;DHT22;2121;48.062;7.850;2022-11-25T17:57:47;7.60;99.90
4215;DHT22;2121;48.062;7.850;2022-11-25T18:00:17;7.60;99.90
4215;DHT22;2121;48.062;7.850;2022-11-25T18:02:45;7.50;99.90
4215;DHT22;2121;48.062;7.850;2022-11-25T18:05:21;7.40;99.90
4215;DHT22;2121;48.062;7.850;2022-11-25T18:07:49;7.40;99.90
4215;DHT22;2121;48.062;7.850;2022-11-25T18:10:17;7.30;99.90
4215;DHT22;2121;48.062;7.850;2022-11-25T18:12:47;7.30;99.90
4215;DHT22;2121;48.062;7.850;2022-11-25T18:15:16;7.20;99.90
4215;DHT22;2121;48.062;7.850;2022-11-25T18:17:43;7.10;99.90
4215;DHT22;2121;48.062;7.850;2022-11-25T18:20:21;7.00;99.90
4215;DHT22;2121;48.062;7.850;2022-11-25T18:22:52;6.90;99.90
4215;DHT22;2121;48.062;7.850;2022-11-25T18:25:24;6.70;99.90
4215;DHT22;2121;48.062;7.850;2022-11-25T18:27:53;6.70;99.90
4215;DHT22;2121;48.062;7.850;2022-11-25T18:30:24;6.70;99.90
4215;DHT22;2121;48.062;7.850;2022-11-25T18:32:51;6.70;99.90
4215;DHT22;2121;48.062;7.850;2022-11-25T18:35:23;6.70;99.90
4215;DHT22;2121;48.062;7.850;2022-11-25T18:37:52;6.60;99.90
4215;DHT22;2121;48.062;7.850;2022-11-25T18:40:18;6.50;99.90
4215;DHT22;2121;48.062;7.850;2022-11-25T18:42:48;6.30;99.90
4215;DHT22;2121;48.062;7.850;2022-11-25T18:45:20;6.20;99.90
4215;DHT22;2121;48.062;7.850;2022-11-25T18:47:47;6.20;99.90
4215;DHT22;2121;48.062;7.850;2022-11-25T18:50:22;6.10;99.90
4215;DHT22;2121;48.062;7.850;2022-11-25T18:52:50;6.00;99.90